Terminal Aerodrome Forecast
Issued by NWS

Home | Current Version | Previous Version | Text Only | Print | Product List | Glossary On
Versions: 1 2 3 4 5 6 7 8 9 10 11 12 13 14 15 16 17 18 19 20
000
FTUS46 KLOX 171100 RRA
TAFSBA
TAF
KSBA 171144Z 1712/1812 06006KT P6SM OVC008
     FM171500 08006KT P6SM OVC012
     FM171700 15007KT P6SM BKN017
     FM172000 24008KT P6SM SCT020 BKN200
     FM180100 VRB03KT P6SM BKN015=

USA.gov is the U.S. government's official web portal to all federal, state and local government web resources and services.